PKE weather

Parkes Airport
Parkes, New South Wales, Australia

Public forecast

Using degrees Celsius for public forecast. Weather courtesy of forecast.io.

METAR (pilot weather report)

Closest report is Dubbo City Regional Airport, 57.5 nm (106.5 km) NNE. Retrieved 2019/03/26 01:30 UTC (24 minutes ago):

YSDU 260130Z AUTO 22015KT 9999 // NCD 20/06 Q1019 RF00.0/000.0

TAF (pilot weather forecast)

Forecast is more than 12 hours old.

Closest forecast is Dubbo City Regional Airport, 57.5 nm (106.5 km) NNE. Retrieved 2019/03/25 00:36 UTC (1 day ago):

TAF YSDU 252236Z 2600/2618 19012KT CAVOK FM261400 16008KT CAVOK